createdAt,value
2019-05-07T00:01:07.785Z,6.20
2019-05-07T00:03:36.337Z,6.20
2019-05-07T00:06:05.230Z,6.20
2019-05-07T00:08:33.708Z,6.20
2019-05-07T00:11:02.531Z,6.10
2019-05-07T00:13:33.374Z,6.00
2019-05-07T00:16:02.490Z,6.00
2019-05-07T00:18:32.352Z,6.10
2019-05-07T00:21:03.376Z,6.10
2019-05-07T00:23:32.531Z,6.10
2019-05-07T00:26:02.416Z,6.10
2019-05-07T00:28:32.426Z,6.00
2019-05-07T00:31:02.911Z,6.00
2019-05-07T00:33:32.488Z,6.00
2019-05-07T00:36:05.784Z,5.90
2019-05-07T00:38:45.355Z,5.90
2019-05-07T00:41:15.437Z,5.90
2019-05-07T00:43:45.717Z,5.90
2019-05-07T00:46:15.796Z,5.90
2019-05-07T00:48:44.261Z,5.90
2019-05-07T00:51:33.152Z,5.90
2019-05-07T00:54:02.908Z,5.90
2019-05-07T00:56:33.228Z,5.90
2019-05-07T00:59:02.317Z,5.90
2019-05-07T01:01:32.378Z,5.90
2019-05-07T01:04:02.625Z,5.80
2019-05-07T01:06:33.111Z,5.80
2019-05-07T01:09:03.150Z,5.80
2019-05-07T01:11:33.572Z,5.80
2019-05-07T01:14:02.763Z,5.70
2019-05-07T01:16:32.959Z,5.70
2019-05-07T01:19:02.208Z,5.70
2019-05-07T01:21:32.416Z,5.60
2019-05-07T01:24:03.221Z,5.60
2019-05-07T01:26:32.938Z,5.60
2019-05-07T01:29:02.976Z,5.60
2019-05-07T01:31:34.868Z,5.60
2019-05-07T01:34:08.164Z,5.50
2019-05-07T01:36:36.893Z,5.40
2019-05-07T01:39:06.191Z,5.50
2019-05-07T01:41:34.658Z,5.40
2019-05-07T01:44:03.115Z,5.40
2019-05-07T01:46:32.504Z,5.30
2019-05-07T01:49:03.011Z,5.30
2019-05-07T01:51:32.676Z,5.20
2019-05-07T01:54:02.238Z,5.20
2019-05-07T01:56:32.999Z,5.20
2019-05-07T01:59:02.434Z,5.10
2019-05-07T02:01:33.170Z,5.10
2019-05-07T02:04:05.696Z,5.10
2019-05-07T02:06:38.547Z,5.10
2019-05-07T02:09:18.240Z,5.00
2019-05-07T02:11:48.362Z,5.00
2019-05-07T02:14:16.801Z,4.90
2019-05-07T02:16:45.263Z,4.90
2019-05-07T02:19:13.983Z,4.90
2019-05-07T02:21:42.539Z,4.90
2019-05-07T02:24:12.662Z,4.90
2019-05-07T02:26:42.713Z,5.00
2019-05-07T02:29:12.238Z,5.00
2019-05-07T02:31:44.113Z,5.00
2019-05-07T02:34:14.039Z,5.10
2019-05-07T02:36:43.343Z,5.00
2019-05-07T02:39:24.024Z,5.10
2019-05-07T02:41:54.305Z,5.00
2019-05-07T02:44:23.456Z,5.00
2019-05-07T02:46:59.619Z,5.10
2019-05-07T02:49:32.596Z,5.00
2019-05-07T02:52:04.139Z,4.90
2019-05-07T02:54:33.345Z,4.90
2019-05-07T02:57:03.168Z,5.00
2019-05-07T02:59:33.609Z,5.00
2019-05-07T03:02:03.560Z,5.00
2019-05-07T03:04:33.407Z,5.00
2019-05-07T03:07:03.825Z,5.00
2019-05-07T03:09:32.966Z,5.00
2019-05-07T03:12:03.976Z,5.00
2019-05-07T03:14:32.461Z,4.90
2019-05-07T03:17:02.975Z,4.90
2019-05-07T03:19:33.220Z,5.00
2019-05-07T03:22:03.910Z,4.90
2019-05-07T03:24:43.145Z,4.90
2019-05-07T03:27:13.773Z,4.90
2019-05-07T03:29:44.224Z,4.90
2019-05-07T03:32:27.574Z,4.90
2019-05-07T03:35:05.932Z,4.90
2019-05-07T03:37:35.919Z,4.90
2019-05-07T03:40:04.020Z,4.90
2019-05-07T03:42:33.786Z,4.90
2019-05-07T03:45:04.166Z,4.90
2019-05-07T03:47:34.361Z,4.90
2019-05-07T03:50:03.553Z,4.90
2019-05-07T03:52:33.557Z,4.90
2019-05-07T03:55:03.653Z,5.00
2019-05-07T03:57:33.414Z,5.00
2019-05-07T04:00:04.330Z,5.00
2019-05-07T04:02:33.398Z,5.00
2019-05-07T04:05:04.188Z,5.00
2019-05-07T04:07:33.728Z,5.00
2019-05-07T04:10:04.358Z,5.00
2019-05-07T04:12:34.289Z,5.10
2019-05-07T04:15:03.447Z,5.10
2019-05-07T04:17:33.822Z,5.20
2019-05-07T04:20:04.546Z,5.30
2019-05-07T04:22:34.571Z,5.30
2019-05-07T04:25:07.376Z,5.40
2019-05-07T04:27:52.590Z,5.40
2019-05-07T04:30:23.313Z,5.50
2019-05-07T04:32:53.047Z,5.50
2019-05-07T04:35:24.445Z,5.40
2019-05-07T04:37:53.473Z,5.30
2019-05-07T04:40:23.984Z,5.30
2019-05-07T04:42:53.900Z,5.40
2019-05-07T04:45:23.273Z,5.50
2019-05-07T04:47:53.867Z,5.60
2019-05-07T04:50:37.797Z,5.70
2019-05-07T04:52:54.200Z,5.80
2019-05-07T04:55:23.061Z,5.90
2019-05-07T04:57:53.401Z,6.00
2019-05-07T05:00:23.143Z,6.10
2019-05-07T05:03:12.678Z,6.10
2019-05-07T05:05:43.272Z,6.20
2019-05-07T05:08:13.462Z,6.30
2019-05-07T05:10:43.312Z,6.40
2019-05-07T05:13:12.901Z,6.60
2019-05-07T05:15:43.180Z,6.90
2019-05-07T05:18:12.727Z,7.10
2019-05-07T05:20:43.506Z,7.20
2019-05-07T05:23:25.563Z,7.20
2019-05-07T05:25:54.292Z,7.40
2019-05-07T05:28:22.728Z,7.30
2019-05-07T05:30:55.924Z,7.40
2019-05-07T05:33:24.647Z,7.50
2019-05-07T05:35:53.138Z,7.80
2019-05-07T05:38:22.293Z,8.10
2019-05-07T05:40:52.128Z,8.50
2019-05-07T05:43:23.105Z,8.70
2019-05-07T05:45:59.164Z,9.10
2019-05-07T05:48:27.926Z,9.40
2019-05-07T05:51:11.872Z,10.50
2019-05-07T05:53:45.409Z,11.20
2019-05-07T05:56:19.028Z,11.30
2019-05-07T06:01:58.907Z,9.80
2019-05-07T06:04:47.233Z,10.40
2019-05-07T06:07:22.538Z,11.20
2019-05-07T06:10:06.991Z,11.90
2019-05-07T06:12:45.856Z,12.00
2019-05-07T06:15:26.343Z,12.40
2019-05-07T06:17:56.461Z,12.00
2019-05-07T06:20:31.934Z,12.10
2019-05-07T06:23:17.705Z,12.00
2019-05-07T06:25:48.216Z,11.70
2019-05-07T06:28:16.773Z,11.40
2019-05-07T06:30:45.549Z,11.70
2019-05-07T06:33:14.082Z,12.00
2019-05-07T06:35:43.065Z,12.60
2019-05-07T06:38:12.774Z,12.30
2019-05-07T06:40:43.003Z,12.60
2019-05-07T06:43:48.514Z,11.40
2019-05-07T06:46:17.317Z,10.20
2019-05-07T06:48:46.423Z,10.30
2019-05-07T06:51:17.267Z,10.30
2019-05-07T06:53:45.228Z,10.30
2019-05-07T06:56:13.715Z,10.10
2019-05-07T06:58:44.195Z,10.30
2019-05-07T07:01:32.319Z,10.00
2019-05-07T07:04:12.944Z,9.90
2019-05-07T07:06:49.416Z,10.50
2019-05-07T07:09:37.994Z,11.00
2019-05-07T07:12:18.810Z,11.70
2019-05-07T07:14:47.598Z,11.90
2019-05-07T07:17:28.342Z,12.50
2019-05-07T07:19:56.846Z,12.40
2019-05-07T07:22:25.305Z,12.10
2019-05-07T07:24:54.193Z,11.70
2019-05-07T07:27:22.888Z,12.30
2019-05-07T07:29:56.073Z,13.00
2019-05-07T07:32:28.892Z,12.20
2019-05-07T07:34:57.711Z,10.90
2019-05-07T07:37:34.361Z,11.10
2019-05-07T07:40:08.024Z,11.80
2019-05-07T07:42:36.465Z,11.60
2019-05-07T07:45:16.580Z,11.80
2019-05-07T07:47:46.559Z,11.80
2019-05-07T07:50:16.679Z,11.80
2019-05-07T07:52:45.345Z,11.70
2019-05-07T07:55:16.444Z,12.20
2019-05-07T07:58:02.726Z,12.30
2019-05-07T08:00:48.658Z,12.00
2019-05-07T08:03:17.117Z,12.60
2019-05-07T08:05:45.945Z,13.00
2019-05-07T08:08:14.671Z,13.00
2019-05-07T08:10:43.332Z,12.60
2019-05-07T08:13:12.299Z,12.80
2019-05-07T08:15:43.008Z,12.70
2019-05-07T08:18:12.020Z,12.40
2019-05-07T08:20:42.884Z,12.80
2019-05-07T08:23:12.192Z,12.70
2019-05-07T08:25:52.531Z,12.30
2019-05-07T08:28:23.238Z,12.70
2019-05-07T08:30:56.474Z,12.80
2019-05-07T08:33:26.708Z,12.10
2019-05-07T08:35:56.830Z,11.60
2019-05-07T08:38:25.578Z,11.70
2019-05-07T08:40:54.442Z,11.90
2019-05-07T08:43:23.045Z,12.40
2019-05-07T08:45:53.290Z,12.90
2019-05-07T08:48:23.509Z,12.60
2019-05-07T08:50:52.524Z,12.20
2019-05-07T08:53:22.459Z,12.60
2019-05-07T08:55:52.652Z,12.50
2019-05-07T08:58:22.409Z,12.00
2019-05-07T09:00:52.385Z,11.50
2019-05-07T09:03:38.971Z,12.00
2019-05-07T09:06:07.526Z,12.40
2019-05-07T09:08:37.553Z,13.00
2019-05-07T09:11:06.009Z,12.30
2019-05-07T09:13:34.495Z,11.90
2019-05-07T09:16:03.303Z,12.50
2019-05-07T09:18:32.262Z,12.40
2019-05-07T09:21:02.237Z,12.30
2019-05-07T09:23:31.887Z,12.40
2019-05-07T09:26:02.776Z,12.60
2019-05-07T09:28:33.485Z,12.60
2019-05-07T09:31:06.098Z,12.80
2019-05-07T09:33:45.127Z,12.60
2019-05-07T09:36:15.469Z,12.30
2019-05-07T09:38:56.163Z,12.70
2019-05-07T09:41:16.079Z,12.90
2019-05-07T09:43:44.805Z,12.00
2019-05-07T09:46:13.347Z,11.90
2019-05-07T09:48:41.850Z,12.60
2019-05-07T09:51:12.161Z,12.80
2019-05-07T09:53:42.391Z,12.80
2019-05-07T09:56:12.384Z,12.80
2019-05-07T09:58:42.607Z,13.30
2019-05-07T10:01:12.572Z,13.40
2019-05-07T10:03:42.882Z,13.20
2019-05-07T10:06:12.420Z,13.10
2019-05-07T10:08:41.996Z,12.70
2019-05-07T10:11:12.241Z,12.20
2019-05-07T10:13:42.430Z,12.70
2019-05-07T10:16:34.711Z,13.30
2019-05-07T10:19:03.462Z,13.90
2019-05-07T10:21:32.315Z,13.80
2019-05-07T10:24:02.360Z,13.60
2019-05-07T10:26:32.274Z,13.00
2019-05-07T10:29:02.186Z,13.00
2019-05-07T10:31:32.035Z,13.10
2019-05-07T10:34:02.893Z,12.80
2019-05-07T10:36:32.164Z,12.40
2019-05-07T10:39:02.488Z,12.50
2019-05-07T10:41:31.840Z,12.60
2019-05-07T10:44:02.429Z,12.80
2019-05-07T10:46:35.078Z,13.10
2019-05-07T10:49:22.473Z,13.40
2019-05-07T10:51:51.800Z,13.90
2019-05-07T10:54:21.878Z,14.30
2019-05-07T10:56:52.425Z,14.60
2019-05-07T10:59:22.480Z,14.00
2019-05-07T11:02:02.439Z,13.20
2019-05-07T11:04:40.355Z,13.40
2019-05-07T11:07:01.513Z,13.70
2019-05-07T11:09:29.977Z,13.50
2019-05-07T11:11:58.513Z,13.70
2019-05-07T11:14:27.091Z,14.00
2019-05-07T11:16:57.530Z,14.10
2019-05-07T11:19:26.212Z,14.10
2019-05-07T11:21:54.694Z,14.20
2019-05-07T11:24:24.814Z,14.30
2019-05-07T11:26:53.876Z,14.20
2019-05-07T11:29:22.404Z,14.50
2019-05-07T11:31:52.513Z,14.60
2019-05-07T11:34:22.082Z,14.80
2019-05-07T11:36:52.387Z,14.40
2019-05-07T11:39:22.678Z,13.80
2019-05-07T11:42:08.669Z,13.50
2019-05-07T11:44:37.418Z,13.20
2019-05-07T11:47:25.513Z,13.00
2019-05-07T11:50:14.747Z,12.90
2019-05-07T11:52:45.034Z,12.20
2019-05-07T11:55:13.898Z,12.10
2019-05-07T11:57:44.454Z,12.20
2019-05-07T12:00:27.846Z,12.50
2019-05-07T12:02:56.654Z,12.70
2019-05-07T12:05:25.436Z,13.00
2019-05-07T12:07:53.920Z,13.00
2019-05-07T12:10:22.459Z,12.80
2019-05-07T12:12:52.121Z,12.80
2019-05-07T12:15:21.723Z,12.60
2019-05-07T12:17:52.130Z,12.40
2019-05-07T12:20:21.812Z,12.20
2019-05-07T12:22:52.157Z,11.90
2019-05-07T12:25:22.469Z,11.70
2019-05-07T12:27:53.896Z,12.00
2019-05-07T12:30:28.375Z,12.30
2019-05-07T12:32:58.492Z,13.00
2019-05-07T12:35:26.990Z,13.70
2019-05-07T12:37:55.453Z,14.00
2019-05-07T12:40:24.076Z,14.40
2019-05-07T12:42:52.623Z,14.40
2019-05-07T12:45:22.801Z,14.50
2019-05-07T12:47:52.950Z,14.20
2019-05-07T12:50:21.980Z,14.30
2019-05-07T12:53:04.488Z,14.50
2019-05-07T12:55:37.338Z,14.70
2019-05-07T12:58:06.157Z,15.00
2019-05-07T13:00:52.171Z,15.20
2019-05-07T13:03:28.272Z,15.00
2019-05-07T13:05:57.014Z,15.20
2019-05-07T13:08:25.705Z,15.10
2019-05-07T13:10:54.184Z,15.00
2019-05-07T13:13:22.913Z,14.90
2019-05-07T13:15:51.906Z,15.30
2019-05-07T13:18:22.495Z,15.40
2019-05-07T13:20:51.920Z,14.70
2019-05-07T13:23:22.527Z,14.30
2019-05-07T13:25:52.292Z,14.00
2019-05-07T13:28:21.358Z,13.70
2019-05-07T13:30:52.473Z,13.50
2019-05-07T13:33:22.808Z,13.30
2019-05-07T13:35:52.213Z,13.10
2019-05-07T13:38:23.879Z,12.80
2019-05-07T13:41:12.613Z,12.60
2019-05-07T13:43:45.337Z,12.30
2019-05-07T13:46:15.560Z,12.10
2019-05-07T13:48:45.802Z,12.10
2019-05-07T13:51:15.182Z,12.10
2019-05-07T13:53:43.827Z,12.20
2019-05-07T13:56:12.875Z,12.00
2019-05-07T13:58:42.822Z,12.00
2019-05-07T14:01:13.420Z,12.20
2019-05-07T14:03:42.511Z,12.10
2019-05-07T14:06:12.765Z,12.00
2019-05-07T14:08:43.045Z,12.00
2019-05-07T14:11:12.235Z,12.00
2019-05-07T14:13:43.434Z,12.00
2019-05-07T14:16:13.384Z,12.10
2019-05-07T14:18:41.895Z,12.10
2019-05-07T14:21:12.989Z,12.20
2019-05-07T14:23:42.812Z,12.30
2019-05-07T14:26:11.714Z,12.40
2019-05-07T14:28:42.126Z,12.50
2019-05-07T14:31:12.334Z,12.80
2019-05-07T14:33:54.758Z,13.10
2019-05-07T14:36:25.279Z,13.30
2019-05-07T14:38:54.718Z,13.30
2019-05-07T14:41:25.766Z,13.30
2019-05-07T14:43:58.176Z,13.00
2019-05-07T14:46:27.005Z,12.80
2019-05-07T14:48:55.465Z,12.80
2019-05-07T14:51:24.595Z,13.00
2019-05-07T14:53:53.606Z,13.20
2019-05-07T14:56:23.203Z,13.30
2019-05-07T14:58:51.788Z,13.40
2019-05-07T15:01:22.293Z,13.40
2019-05-07T15:03:51.688Z,13.40
2019-05-07T15:06:21.930Z,13.30
2019-05-07T15:08:52.264Z,13.10
2019-05-07T15:11:23.739Z,13.10
2019-05-07T15:13:52.425Z,13.10
2019-05-07T15:16:22.491Z,13.20
2019-05-07T15:18:53.281Z,13.20
2019-05-07T15:21:24.577Z,13.20
2019-05-07T15:24:34.798Z,13.20
2019-05-07T15:27:09.207Z,13.20
2019-05-07T15:32:42.852Z,13.30
2019-05-07T15:35:17.889Z,13.10
2019-05-07T15:38:03.999Z,13.10
2019-05-07T15:40:36.111Z,12.90
2019-05-07T15:43:04.694Z,12.80
2019-05-07T15:45:33.839Z,12.70
2019-05-07T15:48:06.114Z,12.40
2019-05-07T15:50:37.819Z,12.40
2019-05-07T15:53:08.115Z,12.50
2019-05-07T15:55:36.588Z,12.80
2019-05-07T15:58:05.070Z,12.80
2019-05-07T16:00:36.536Z,12.90
2019-05-07T16:03:11.871Z,12.90
2019-05-07T16:05:42.392Z,12.90
2019-05-07T16:08:12.618Z,12.90
2019-05-07T16:10:42.657Z,12.80
2019-05-07T16:13:14.532Z,12.70
2019-05-07T16:15:43.404Z,12.60
2019-05-07T16:18:23.646Z,12.50
2019-05-07T16:20:52.255Z,12.50
2019-05-07T16:23:22.075Z,12.40
2019-05-07T16:25:52.676Z,12.50
2019-05-07T16:28:21.900Z,12.50
2019-05-07T16:30:52.092Z,12.50
2019-05-07T16:33:24.996Z,12.50
2019-05-07T16:35:55.187Z,12.50
2019-05-07T16:38:29.424Z,12.60
2019-05-07T16:40:58.576Z,12.60
2019-05-07T16:43:27.460Z,12.70
2019-05-07T16:45:56.562Z,12.60
2019-05-07T16:48:26.776Z,12.40
2019-05-07T16:50:55.759Z,12.00
2019-05-07T16:53:29.762Z,11.70
2019-05-07T16:55:55.498Z,11.60
2019-05-07T16:58:36.418Z,11.60
2019-05-07T17:01:12.400Z,11.60
2019-05-07T17:03:52.564Z,11.80
2019-05-07T17:06:39.248Z,11.90
2019-05-07T17:09:13.443Z,12.10
2019-05-07T17:12:02.118Z,12.30
2019-05-07T17:14:48.543Z,12.40
2019-05-07T17:23:04.722Z,12.70
2019-05-07T17:38:28.294Z,12.30
2019-05-07T17:46:57.798Z,11.80
2019-05-07T17:49:34.001Z,11.70
2019-05-07T17:59:07.465Z,11.60
2019-05-07T18:01:43.598Z,11.60
2019-05-07T18:07:21.471Z,11.60
2019-05-07T18:09:57.802Z,11.60
2019-05-07T18:16:17.792Z,11.50
2019-05-07T18:18:46.665Z,11.40
2019-05-07T18:21:15.288Z,11.40
2019-05-07T18:24:11.292Z,11.40
2019-05-07T19:04:45.683Z,10.00
2019-05-07T19:07:14.303Z,10.00
2019-05-07T19:09:44.329Z,10.00
2019-05-07T19:12:14.641Z,10.10
2019-05-07T19:14:45.573Z,10.10
2019-05-07T19:17:14.674Z,10.10
2019-05-07T19:19:43.747Z,10.00
2019-05-07T19:22:12.282Z,9.90
2019-05-07T19:27:37.895Z,9.80
2019-05-07T19:30:08.952Z,9.80
2019-05-07T19:32:42.865Z,9.70
2019-05-07T19:35:13.035Z,9.60
2019-05-07T19:37:45.408Z,9.60
2019-05-07T19:40:14.019Z,9.50
2019-05-07T19:42:42.899Z,9.40
2019-05-07T19:45:17.995Z,9.30
2019-05-07T19:47:45.709Z,9.20
2019-05-07T19:50:20.173Z,9.10
2019-05-07T19:52:58.888Z,9.00
2019-05-07T19:55:21.826Z,8.90
2019-05-07T19:58:00.820Z,8.80
2019-05-07T20:00:29.691Z,8.80
2019-05-07T20:03:00.473Z,8.70
2019-05-07T20:05:32.150Z,8.60
2019-05-07T20:08:04.735Z,8.50
2019-05-07T20:10:34.955Z,8.40
2019-05-07T20:13:03.435Z,8.40
2019-05-07T20:15:37.894Z,8.30
2019-05-07T20:18:07.116Z,8.30
2019-05-07T20:20:35.627Z,8.20
2019-05-07T20:23:05.501Z,8.20
2019-05-07T20:25:34.494Z,8.30
2019-05-07T20:28:16.746Z,8.30
2019-05-07T20:30:36.722Z,8.20
2019-05-07T20:33:05.379Z,8.20
2019-05-07T20:35:37.214Z,8.10
2019-05-07T20:38:07.136Z,8.10
2019-05-07T20:40:35.941Z,8.10
2019-05-07T20:43:07.406Z,8.00
2019-05-07T20:45:36.875Z,8.00
2019-05-07T20:48:05.862Z,7.90
2019-05-07T20:50:34.405Z,7.80
2019-05-07T20:53:02.881Z,7.80
2019-05-07T20:55:49.438Z,7.70
2019-05-07T20:58:18.345Z,7.70
2019-05-07T21:00:47.332Z,7.60
2019-05-07T21:03:23.882Z,7.50
2019-05-07T21:05:53.368Z,7.50
2019-05-07T21:08:22.779Z,7.40
2019-05-07T21:10:53.490Z,7.30
2019-05-07T21:13:30.377Z,7.30
2019-05-07T21:15:53.708Z,7.20
2019-05-07T21:18:26.422Z,7.20
2019-05-07T21:20:54.961Z,7.10
2019-05-07T21:23:23.498Z,7.10
2019-05-07T21:25:52.790Z,7.00
2019-05-07T21:28:22.923Z,7.00
2019-05-07T21:30:54.393Z,6.90
2019-05-07T21:33:23.148Z,6.90
2019-05-07T21:35:53.210Z,6.80
2019-05-07T21:38:22.555Z,6.80
2019-05-07T21:40:51.607Z,6.80
2019-05-07T21:43:22.243Z,6.80
2019-05-07T21:45:53.041Z,6.90
2019-05-07T21:48:22.496Z,6.90
2019-05-07T21:50:51.986Z,6.80
2019-05-07T21:53:27.971Z,6.80
2019-05-07T21:56:05.409Z,6.80
2019-05-07T21:58:35.888Z,6.80
2019-05-07T22:01:06.793Z,6.70
2019-05-07T22:03:35.609Z,6.70
2019-05-07T22:06:04.150Z,6.60
2019-05-07T22:08:32.733Z,6.50
2019-05-07T22:11:02.450Z,6.50
2019-05-07T22:13:33.819Z,6.50
2019-05-07T22:16:02.809Z,6.40
2019-05-07T22:18:33.826Z,6.40
2019-05-07T22:21:02.987Z,6.30
2019-05-07T22:23:32.328Z,6.30
2019-05-07T22:26:16.665Z,6.30
2019-05-07T22:28:33.809Z,6.20
2019-05-07T22:31:12.736Z,6.20
2019-05-07T22:33:52.743Z,6.20
2019-05-07T22:36:22.002Z,6.20
2019-05-07T22:38:52.653Z,6.20
2019-05-07T22:41:22.402Z,6.20
2019-05-07T22:43:52.584Z,6.20
2019-05-07T22:46:22.302Z,6.10
2019-05-07T22:48:51.058Z,6.10
2019-05-07T22:51:19.880Z,6.10
2019-05-07T22:53:48.426Z,6.10
2019-05-07T22:56:30.969Z,6.10
2019-05-07T22:58:49.371Z,6.10
2019-05-07T23:01:22.632Z,6.00
2019-05-07T23:03:51.828Z,6.00
2019-05-07T23:06:23.378Z,6.00
2019-05-07T23:08:52.888Z,6.00
2019-05-07T23:11:22.940Z,6.00
2019-05-07T23:13:54.387Z,5.90
2019-05-07T23:16:23.098Z,5.90
2019-05-07T23:18:54.445Z,5.90
2019-05-07T23:21:24.659Z,5.80
2019-05-07T23:23:53.550Z,5.80
2019-05-07T23:26:23.346Z,5.80
2019-05-07T23:28:52.413Z,5.70
2019-05-07T23:31:22.837Z,5.70
2019-05-07T23:33:52.348Z,5.60
2019-05-07T23:36:22.688Z,5.60
2019-05-07T23:38:52.062Z,5.60
2019-05-07T23:41:25.344Z,5.60
2019-05-07T23:44:12.592Z,5.50
2019-05-07T23:46:42.618Z,5.50
2019-05-07T23:49:12.464Z,5.50
2019-05-07T23:51:42.088Z,5.50
2019-05-07T23:54:12.126Z,5.50
2019-05-07T23:56:42.723Z,5.50
2019-05-07T23:59:14.509Z,5.50
